Overview Statistics Trail Chart Weather Telemetry Raw packets
 

This is the latest recevied packets stored in our database for station/object DG0OPK-95. If no packets are shown the sender has not sent any packets the latest 24 hours.

If you compare the raw packets with similar data from other websites it may differ (especially the path), the reason is that we are not collecting packets from the same APRS-IS servers. Each APRS-IS server performes duplicate filtering, and which packet that is considered to be a duplicate may differ depending on which APRS-IS server you receive your data from.

<< 1 2 3 4 >>

1778072602: DG0OPK-95>APRSMC,TCPIP*,qAR,DB0TAW-13:T#262,0.0,30.1,26.4,0.0,0.0,00000000

1778072602: DG0OPK-95>APRSMC,TCPIP*,qAR,DB0TAW-13:!5042.30N/01034.32E-Meshcom Steinb.-Hbg.#NODE V3 TEST/B=100/A=001640

1778070747: DG0OPK-95>APRSMC,TCPIP*,qAR,DB0TAW-13::DG0OPK-95:PARM.Press,Temp.in,Hum,QNH,Temp.out,track,-,-,-,-,-,-,-

1778070747: DG0OPK-95>APRSMC,TCPIP*,qAR,DB0TAW-13:T#261,0.0,30.1,26.4,0.0,0.0,00000000

1778070747: DG0OPK-95>APRSMC,TCPIP*,qAR,DB0TAW-13::DG0OPK-95:EQNS.0,1,0,0,1,0,0,1,0,0,1,0,0,1,0

1778070747: DG0OPK-95>APRSMC,TCPIP*,qAR,DB0TAW-13::DG0OPK-95:UNIT.hPa,C deg,%,hPa,C deg,Y/N,O/N,O/N,O/N,O/N,O/N,O/N,O/N

1778070747: DG0OPK-95>APRSMC,TCPIP*,qAR,DB0TAW-13:!5042.30N/01034.32E-Meshcom Steinb.-Hbg.#NODE V3 TEST/B=100/A=001640

1778069702: DG0OPK-95>APRSMC,TCPIP*,qAR,DL2AKT-99:T#912,0.0,30.1,26.5,0.0,0.0,00000000

1778069702: DG0OPK-95>APRSMC,TCPIP*,qAR,DL2AKT-99:!5042.30N/01034.32E-Meshcom Steinb.-Hbg.#NODE V3 TEST/B=100/A=001640

1778068966: DG0OPK-95>APRSMC,TCPIP*,qAR,DB0TAW-13:T#260,0.0,30.1,26.5,0.0,0.0,00000000

1778068966: DG0OPK-95>APRSMC,TCPIP*,qAR,DB0TAW-13:!5042.30N/01034.32E-Meshcom Steinb.-Hbg.#NODE V3 TEST/B=100/A=001640

1778067167: DG0OPK-95>APRSMC,TCPIP*,qAR,DB0TAW-13:T#259,0.0,30.0,26.6,0.0,0.0,00000000

1778067167: DG0OPK-95>APRSMC,TCPIP*,qAR,DB0TAW-13:!5042.30N/01034.32E-Meshcom Steinb.-Hbg.#NODE V3 TEST/B=100/A=001640

1778065360: DG0OPK-95>APRSMC,TCPIP*,qAR,DK7WK-12:T#911,0.0,30.0,26.6,0.0,0.0,00000000

1778065360: DG0OPK-95>APRSMC,TCPIP*,qAR,DK7WK-12::DG0OPK-95:PARM.Press,Temp.in,Hum,QNH,Temp.out,track,-,-,-,-,-,-,-

1778065360: DG0OPK-95>APRSMC,TCPIP*,qAR,DK7WK-12::DG0OPK-95:UNIT.hPa,C deg,%,hPa,C deg,Y/N,O/N,O/N,O/N,O/N,O/N,O/N,O/N

1778065360: DG0OPK-95>APRSMC,TCPIP*,qAR,DK7WK-12::DG0OPK-95:EQNS.0,1,0,0,1,0,0,1,0,0,1,0,0,1,0

1778065360: DG0OPK-95>APRSMC,TCPIP*,qAR,DK7WK-12:!5042.30N/01034.32E-Meshcom Steinb.-Hbg.#NODE V3 TEST/B=100/A=001640

1778065309: DG0OPK-95>APRSMC,TCPIP*,qAR,DB0TAW-13:T#258,0.0,30.0,26.6,0.0,0.0,00000000

1778065309: DG0OPK-95>APRSMC,TCPIP*,qAR,DB0TAW-13:!5042.30N/01034.32E-Meshcom Steinb.-Hbg.#NODE V3 TEST/B=100/A=001640

1778063503: DG0OPK-95>APRSMC,TCPIP*,qAR,DB0TAW-13:T#257,0.0,29.9,26.8,0.0,0.0,00000000

1778063503: DG0OPK-95>APRSMC,TCPIP*,qAR,DB0TAW-13:!5042.30N/01034.32E-Meshcom Steinb.-Hbg.#NODE V3 TEST/B=100/A=001640

1778061762: DG0OPK-95>APRSMC,TCPIP*,qAR,DB0TAW-13:T#256,0.0,29.9,26.8,0.0,0.0,00000000

1778061762: DG0OPK-95>APRSMC,TCPIP*,qAR,DB0TAW-13:!5042.30N/01034.32E-Meshcom Steinb.-Hbg.#NODE V3 TEST/B=100/A=001640

1778060674: DG0OPK-95>APRSMC,TCPIP*,qAR,DL2AKT-9:T#910,0.0,29.8,27.0,0.0,0.0,00000000